createdAt,value
2017-10-15T00:00:42.903Z,0
2017-10-15T00:01:52.227Z,0
2017-10-15T00:03:01.542Z,0
2017-10-15T00:04:10.869Z,0
2017-10-15T00:05:20.173Z,0
2017-10-15T00:06:28.820Z,0
2017-10-15T00:07:38.132Z,0
2017-10-15T00:08:48.100Z,0
2017-10-15T00:09:56.751Z,0
2017-10-15T00:11:06.065Z,0
2017-10-15T00:12:15.370Z,0
2017-10-15T00:13:24.036Z,0
2017-10-15T00:14:32.709Z,0
2017-10-15T00:15:41.694Z,0
2017-10-15T00:16:50.682Z,0
2017-10-15T00:17:59.347Z,0
2017-10-15T00:19:08.039Z,0
2017-10-15T00:20:16.693Z,0
2017-10-15T00:21:25.683Z,0
2017-10-15T00:22:35.003Z,0
2017-10-15T00:23:43.972Z,0
2017-10-15T00:24:52.951Z,0
2017-10-15T00:26:01.931Z,0
2017-10-15T00:27:10.942Z,0
2017-10-15T00:28:19.924Z,0
2017-10-15T00:29:29.230Z,0
2017-10-15T00:30:37.873Z,0
2017-10-15T00:31:46.853Z,0
2017-10-15T00:32:55.509Z,0
2017-10-15T00:34:04.173Z,0
2017-10-15T00:35:13.489Z,0
2017-10-15T00:36:22.502Z,0
2017-10-15T00:37:31.158Z,0
2017-10-15T00:38:39.875Z,0
2017-10-15T00:39:48.864Z,0
2017-10-15T00:40:57.521Z,0
2017-10-15T00:42:06.168Z,0
2017-10-15T00:43:14.819Z,0
2017-10-15T00:44:23.803Z,0
2017-10-15T00:45:33.104Z,0
2017-10-15T00:46:41.771Z,0
2017-10-15T00:47:51.408Z,0
2017-10-15T00:49:00.388Z,0
2017-10-15T00:50:09.031Z,0
2017-10-15T00:51:17.688Z,0
2017-10-15T00:52:27.001Z,0
2017-10-15T00:53:36.371Z,0
2017-10-15T00:54:46.039Z,0
2017-10-15T00:55:55.021Z,0
2017-10-15T00:57:04.335Z,0
2017-10-15T00:58:13.310Z,0
2017-10-15T00:59:21.972Z,0
2017-10-15T01:00:30.641Z,0
2017-10-15T01:01:39.624Z,0
2017-10-15T01:02:48.627Z,0
2017-10-15T01:03:57.277Z,0
2017-10-15T01:05:06.263Z,0
2017-10-15T01:06:15.900Z,0
2017-10-15T01:07:24.546Z,0
2017-10-15T01:08:33.861Z,0
2017-10-15T01:09:42.854Z,0
2017-10-15T01:10:51.831Z,0
2017-10-15T01:12:00.809Z,0
2017-10-15T01:13:10.443Z,0
2017-10-15T01:14:19.456Z,0
2017-10-15T01:15:28.153Z,0
2017-10-15T01:16:37.454Z,0
2017-10-15T01:17:46.475Z,0
2017-10-15T01:18:55.454Z,0
2017-10-15T01:20:04.426Z,0
2017-10-15T01:21:13.731Z,0
2017-10-15T01:22:22.726Z,0
2017-10-15T01:23:32.072Z,0
2017-10-15T01:24:40.718Z,0
2017-10-15T01:25:49.714Z,0
2017-10-15T01:26:59.018Z,0
2017-10-15T01:28:08.661Z,0
2017-10-15T01:29:17.327Z,0
2017-10-15T01:30:26.656Z,0
2017-10-15T01:31:35.968Z,0
2017-10-15T01:32:45.296Z,0
2017-10-15T01:33:53.965Z,0
2017-10-15T01:35:02.612Z,0
2017-10-15T01:36:11.597Z,0
2017-10-15T01:37:20.897Z,0
2017-10-15T01:38:30.567Z,0
2017-10-15T01:39:39.658Z,0
2017-10-15T01:40:48.957Z,0
2017-10-15T01:41:58.312Z,0
2017-10-15T01:43:07.300Z,0
2017-10-15T01:44:17.385Z,0
2017-10-15T01:45:26.716Z,0
2017-10-15T01:46:35.713Z,0
2017-10-15T01:47:44.715Z,0
2017-10-15T01:48:54.343Z,0
2017-10-15T01:50:03.384Z,0
2017-10-15T01:51:12.394Z,0
2017-10-15T01:52:21.405Z,0
2017-10-15T01:53:30.080Z,0
2017-10-15T01:54:39.717Z,0
2017-10-15T01:55:49.050Z,0
2017-10-15T01:56:58.375Z,0
2017-10-15T01:58:07.051Z,0
2017-10-15T01:59:16.359Z,0
2017-10-15T02:00:25.700Z,0
2017-10-15T02:01:35.007Z,0
2017-10-15T02:02:43.662Z,0
2017-10-15T02:03:52.646Z,0
2017-10-15T02:05:01.631Z,0
2017-10-15T02:06:10.947Z,0
2017-10-15T02:07:20.253Z,0
2017-10-15T02:08:28.925Z,0
2017-10-15T02:09:38.545Z,0
2017-10-15T02:10:47.846Z,0
2017-10-15T02:11:56.581Z,0
2017-10-15T02:13:05.555Z,0
2017-10-15T02:14:14.596Z,0
2017-10-15T02:15:23.270Z,0
2017-10-15T02:16:32.614Z,0
2017-10-15T02:17:41.627Z,0
2017-10-15T02:18:50.942Z,0
2017-10-15T02:20:00.251Z,0
2017-10-15T02:21:09.562Z,0
2017-10-15T02:22:18.541Z,0
2017-10-15T02:23:27.198Z,0
2017-10-15T02:24:36.837Z,0
2017-10-15T02:25:45.949Z,0
2017-10-15T02:26:54.919Z,0
2017-10-15T02:28:04.220Z,0
2017-10-15T02:29:13.861Z,0
2017-10-15T02:30:22.838Z,0
2017-10-15T02:31:31.498Z,0
2017-10-15T02:32:40.833Z,0
2017-10-15T02:33:49.816Z,0
2017-10-15T02:34:58.483Z,0
2017-10-15T02:36:07.474Z,0
2017-10-15T02:37:16.495Z,0
2017-10-15T02:38:25.163Z,0
2017-10-15T02:39:34.164Z,0
2017-10-15T02:40:43.468Z,0
2017-10-15T02:41:53.105Z,0
2017-10-15T02:43:02.534Z,0
2017-10-15T02:44:11.522Z,0
2017-10-15T02:45:20.178Z,0
2017-10-15T02:46:29.522Z,0
2017-10-15T02:47:38.499Z,0
2017-10-15T02:48:48.140Z,0
2017-10-15T02:49:57.454Z,0
2017-10-15T02:51:06.455Z,0
2017-10-15T02:52:15.751Z,0
2017-10-15T02:53:24.743Z,0
2017-10-15T02:54:34.707Z,0
2017-10-15T02:55:44.021Z,0
2017-10-15T02:56:53.001Z,0
2017-10-15T02:58:02.010Z,0
2017-10-15T02:59:11.658Z,0
2017-10-15T03:00:20.651Z,0
2017-10-15T03:01:29.301Z,0
2017-10-15T03:02:38.603Z,0
2017-10-15T03:03:47.594Z,0
2017-10-15T03:04:56.571Z,0
2017-10-15T03:06:05.347Z,0
2017-10-15T03:07:14.324Z,0
2017-10-15T03:08:23.310Z,0
2017-10-15T03:09:32.655Z,0
2017-10-15T03:10:41.676Z,0
2017-10-15T03:11:51.408Z,0
2017-10-15T03:13:01.043Z,0
2017-10-15T03:14:09.707Z,0
2017-10-15T03:15:19.037Z,0
2017-10-15T03:16:28.017Z,0
2017-10-15T03:17:37.014Z,0
2017-10-15T03:18:46.011Z,0
2017-10-15T03:19:55.003Z,0
2017-10-15T03:21:03.989Z,0
2017-10-15T03:22:12.648Z,0
2017-10-15T03:23:22.389Z,0
2017-10-15T03:24:31.377Z,0
2017-10-15T03:25:41.014Z,0
2017-10-15T03:26:49.992Z,0
2017-10-15T03:27:58.983Z,0
2017-10-15T03:29:08.306Z,0
2017-10-15T03:30:17.965Z,0
2017-10-15T03:31:27.648Z,0
2017-10-15T03:32:36.633Z,0
2017-10-15T03:33:45.284Z,0
2017-10-15T03:34:54.607Z,0
2017-10-15T03:36:04.581Z,0
2017-10-15T03:37:13.236Z,0
2017-10-15T03:38:22.563Z,0
2017-10-15T03:39:31.225Z,0
2017-10-15T03:40:40.216Z,0
2017-10-15T03:41:49.527Z,0
2017-10-15T03:42:58.526Z,0
2017-10-15T03:44:07.601Z,0
2017-10-15T03:45:16.246Z,0
2017-10-15T03:46:25.552Z,0
2017-10-15T03:47:34.862Z,0
2017-10-15T03:48:43.844Z,0
2017-10-15T03:49:53.514Z,0
2017-10-15T03:51:03.152Z,0
2017-10-15T03:52:11.816Z,0
2017-10-15T03:53:21.143Z,0
2017-10-15T03:54:30.138Z,0
2017-10-15T03:55:39.124Z,0
2017-10-15T03:56:48.748Z,0
2017-10-15T03:57:57.741Z,0
2017-10-15T03:59:06.730Z,0
2017-10-15T04:00:15.720Z,0
2017-10-15T04:01:24.707Z,0
2017-10-15T04:02:33.694Z,0
2017-10-15T04:03:42.675Z,0
2017-10-15T04:04:51.673Z,0
2017-10-15T04:06:00.983Z,0
2017-10-15T04:07:10.309Z,0
2017-10-15T04:08:19.623Z,0
2017-10-15T04:09:28.607Z,0
2017-10-15T04:10:37.602Z,0
2017-10-15T04:11:46.928Z,0
2017-10-15T04:12:55.923Z,0
2017-10-15T04:14:05.218Z,0
2017-10-15T04:15:13.992Z,0
2017-10-15T04:16:23.310Z,0
2017-10-15T04:17:31.991Z,0
2017-10-15T04:18:40.654Z,0
2017-10-15T04:19:50.320Z,0
2017-10-15T04:20:59.298Z,0
2017-10-15T04:22:08.284Z,0
2017-10-15T04:23:16.955Z,0
2017-10-15T04:24:25.615Z,0
2017-10-15T04:25:35.244Z,0
2017-10-15T04:26:44.656Z,0
2017-10-15T04:27:54.287Z,0
2017-10-15T04:29:02.944Z,0
2017-10-15T04:30:11.926Z,0
2017-10-15T04:31:21.565Z,0
2017-10-15T04:32:30.869Z,0
2017-10-15T04:33:40.513Z,0
2017-10-15T04:34:49.827Z,0
2017-10-15T04:35:58.555Z,0
2017-10-15T04:37:07.211Z,0
2017-10-15T04:38:16.218Z,0
2017-10-15T04:39:24.872Z,0
2017-10-15T04:40:33.861Z,0
2017-10-15T04:41:43.165Z,0
2017-10-15T04:42:52.167Z,0
2017-10-15T04:44:01.817Z,0
2017-10-15T04:45:11.130Z,0
2017-10-15T04:46:20.466Z,0
2017-10-15T04:47:29.451Z,0
2017-10-15T04:48:38.450Z,0
2017-10-15T04:49:47.106Z,0
2017-10-15T04:50:56.094Z,0
2017-10-15T04:52:05.072Z,0
2017-10-15T04:53:14.054Z,0
2017-10-15T04:54:23.054Z,0
2017-10-15T04:55:32.367Z,0
2017-10-15T04:56:41.014Z,0
2017-10-15T04:57:49.671Z,0
2017-10-15T04:58:58.653Z,0
2017-10-15T05:00:07.636Z,0
2017-10-15T05:01:16.290Z,0
2017-10-15T05:02:25.675Z,0
2017-10-15T05:03:34.977Z,0
2017-10-15T05:04:43.961Z,0
2017-10-15T05:05:53.604Z,0
2017-10-15T05:07:03.257Z,0
2017-10-15T05:08:12.599Z,0
2017-10-15T05:09:21.923Z,0
2017-10-15T05:10:31.552Z,0
2017-10-15T05:11:40.533Z,0
2017-10-15T05:12:49.528Z,0
2017-10-15T05:13:58.524Z,0
2017-10-15T05:15:07.516Z,0
2017-10-15T05:16:16.839Z,0
2017-10-15T05:17:25.501Z,0
2017-10-15T05:18:34.485Z,0
2017-10-15T05:19:43.474Z,0
2017-10-15T05:20:52.782Z,0
2017-10-15T05:22:01.761Z,0
2017-10-15T05:23:10.415Z,0
2017-10-15T05:24:19.079Z,0
2017-10-15T05:25:28.709Z,0
2017-10-15T05:26:37.710Z,0
2017-10-15T05:27:47.025Z,0
2017-10-15T05:28:56.006Z,0
2017-10-15T05:30:05.417Z,0
2017-10-15T05:31:15.069Z,4
2017-10-15T05:32:23.736Z,4
2017-10-15T05:33:32.720Z,0
2017-10-15T05:34:42.704Z,4
2017-10-15T05:35:51.371Z,4
2017-10-15T05:37:00.686Z,4
2017-10-15T05:38:09.707Z,4
2017-10-15T05:39:19.711Z,8
2017-10-15T05:40:28.707Z,12
2017-10-15T05:41:38.339Z,12
2017-10-15T05:42:47.364Z,16
2017-10-15T05:43:56.017Z,16
2017-10-15T05:45:05.014Z,20
2017-10-15T05:46:13.985Z,24
2017-10-15T05:47:22.960Z,24
2017-10-15T05:48:32.266Z,28
2017-10-15T05:49:40.908Z,32
2017-10-15T05:50:49.606Z,32
2017-10-15T05:51:58.907Z,40
2017-10-15T05:53:07.881Z,44
2017-10-15T05:54:16.532Z,48
2017-10-15T05:55:25.838Z,52
2017-10-15T05:56:35.175Z,60
2017-10-15T05:57:44.168Z,64
2017-10-15T05:58:53.147Z,72
2017-10-15T06:00:01.814Z,80
2017-10-15T06:01:10.802Z,84
2017-10-15T06:02:19.792Z,88
2017-10-15T06:03:28.773Z,96
2017-10-15T06:04:38.195Z,108
2017-10-15T06:05:47.200Z,112
2017-10-15T06:06:57.174Z,124
2017-10-15T06:08:06.164Z,128
2017-10-15T06:09:15.137Z,140
2017-10-15T06:10:24.137Z,144
2017-10-15T06:11:33.788Z,156
2017-10-15T06:12:42.789Z,164
2017-10-15T06:13:52.095Z,168
2017-10-15T06:15:01.734Z,180
2017-10-15T06:16:10.727Z,192
2017-10-15T06:17:19.423Z,196
2017-10-15T06:18:28.487Z,204
2017-10-15T06:19:37.487Z,216
2017-10-15T06:20:47.150Z,224
2017-10-15T06:21:56.139Z,232
2017-10-15T06:23:05.505Z,244
2017-10-15T06:24:14.480Z,248
2017-10-15T06:25:23.788Z,260
2017-10-15T06:26:32.433Z,272
2017-10-15T06:27:41.831Z,276
2017-10-15T06:28:50.824Z,284
2017-10-15T06:29:59.488Z,292
2017-10-15T06:31:09.126Z,300
2017-10-15T06:32:18.429Z,308
2017-10-15T06:33:27.115Z,316
2017-10-15T06:34:36.875Z,324
2017-10-15T06:35:46.516Z,332
2017-10-15T06:36:55.234Z,340
2017-10-15T06:38:04.849Z,344
2017-10-15T06:39:14.161Z,356
2017-10-15T06:40:23.160Z,364
2017-10-15T06:41:31.809Z,368
2017-10-15T06:42:40.800Z,376
2017-10-15T06:43:50.108Z,384
2017-10-15T06:44:59.308Z,392
2017-10-15T06:46:08.800Z,396
2017-10-15T06:47:18.128Z,404
2017-10-15T06:48:27.614Z,408
2017-10-15T06:49:36.973Z,416
2017-10-15T06:50:46.347Z,420
2017-10-15T06:51:55.405Z,428
2017-10-15T06:53:04.183Z,436
2017-10-15T06:54:13.560Z,440
2017-10-15T06:55:23.028Z,448
2017-10-15T06:56:32.337Z,448
2017-10-15T06:57:41.325Z,456
2017-10-15T06:58:51.336Z,464
2017-10-15T07:00:02.693Z,472
2017-10-15T07:01:13.138Z,476
2017-10-15T07:02:22.021Z,480
2017-10-15T07:03:31.529Z,488
2017-10-15T07:04:40.506Z,492
2017-10-15T07:05:49.498Z,500
2017-10-15T07:06:58.510Z,504
2017-10-15T07:08:07.632Z,516
2017-10-15T07:09:16.941Z,516
2017-10-15T07:10:26.579Z,520
2017-10-15T07:11:35.426Z,528
2017-10-15T07:12:44.097Z,536
2017-10-15T07:13:53.420Z,536
2017-10-15T07:15:02.430Z,540
2017-10-15T07:16:11.975Z,544
2017-10-15T07:17:21.698Z,552
2017-10-15T07:18:30.691Z,560
2017-10-15T07:19:39.670Z,556
2017-10-15T07:20:48.642Z,564
2017-10-15T07:21:57.308Z,568
2017-10-15T07:23:06.312Z,572
2017-10-15T07:24:15.635Z,580
2017-10-15T07:25:24.630Z,580
2017-10-15T07:26:33.636Z,588
2017-10-15T07:27:42.952Z,592
2017-10-15T07:28:51.934Z,604
2017-10-15T07:30:01.942Z,604
2017-10-15T07:31:11.275Z,608
2017-10-15T07:32:20.931Z,612
2017-10-15T07:33:29.591Z,612
2017-10-15T07:34:38.581Z,616
2017-10-15T07:35:47.578Z,624
2017-10-15T07:36:57.223Z,624
2017-10-15T07:38:06.210Z,628
2017-10-15T07:39:15.520Z,628
2017-10-15T07:40:24.509Z,632
2017-10-15T07:41:33.836Z,640
2017-10-15T07:42:42.940Z,640
2017-10-15T07:43:51.943Z,644
2017-10-15T07:45:01.679Z,652
2017-10-15T07:46:10.426Z,652
2017-10-15T07:47:19.422Z,660
2017-10-15T07:48:28.758Z,660
2017-10-15T07:49:37.747Z,672
2017-10-15T07:50:47.053Z,668
2017-10-15T07:51:55.705Z,668
2017-10-15T07:53:05.024Z,668
2017-10-15T07:54:14.329Z,672
2017-10-15T07:55:23.371Z,672
2017-10-15T07:56:32.765Z,680
2017-10-15T07:57:42.067Z,688
2017-10-15T07:58:51.406Z,696
2017-10-15T08:00:00.076Z,696
2017-10-15T08:01:09.126Z,700
2017-10-15T08:02:18.443Z,700
2017-10-15T08:03:27.463Z,704
2017-10-15T08:04:36.499Z,708
2017-10-15T08:05:45.489Z,708
2017-10-15T08:06:54.823Z,712
2017-10-15T08:08:04.493Z,712
2017-10-15T08:09:13.160Z,716
2017-10-15T08:10:22.152Z,712
2017-10-15T08:11:31.138Z,712
2017-10-15T08:12:40.486Z,708
2017-10-15T08:13:49.486Z,708
2017-10-15T08:14:59.144Z,700
2017-10-15T08:16:08.137Z,704
2017-10-15T08:17:18.153Z,704
2017-10-15T08:18:27.157Z,704
2017-10-15T08:19:36.134Z,704
2017-10-15T08:20:45.518Z,700
2017-10-15T08:21:54.523Z,704
2017-10-15T08:23:03.534Z,704
2017-10-15T08:24:25.905Z,704
2017-10-15T08:25:34.902Z,708
2017-10-15T08:26:43.895Z,708
2017-10-15T08:27:53.541Z,712
2017-10-15T08:29:02.207Z,712
2017-10-15T08:30:11.874Z,708
2017-10-15T08:31:21.189Z,708
2017-10-15T08:32:30.218Z,704
2017-10-15T08:33:38.892Z,704
2017-10-15T08:34:47.894Z,696
2017-10-15T08:35:56.884Z,704
2017-10-15T08:37:06.197Z,704
2017-10-15T08:38:15.847Z,704
2017-10-15T08:39:24.872Z,700
2017-10-15T08:40:33.860Z,700
2017-10-15T08:41:42.905Z,700
2017-10-15T08:42:52.316Z,696
2017-10-15T08:44:01.636Z,700
2017-10-15T08:45:10.956Z,692
2017-10-15T08:46:19.932Z,696
2017-10-15T08:47:28.941Z,688
2017-10-15T08:48:38.272Z,692
2017-10-15T08:49:47.969Z,688
2017-10-15T08:50:56.958Z,692
2017-10-15T08:52:06.282Z,688
2017-10-15T08:53:14.977Z,684
2017-10-15T08:54:23.960Z,680
2017-10-15T08:55:33.583Z,684
2017-10-15T08:56:42.966Z,680
2017-10-15T08:57:52.645Z,680
2017-10-15T08:59:01.986Z,696
2017-10-15T09:00:11.649Z,696
2017-10-15T09:01:20.646Z,696
2017-10-15T09:02:29.315Z,696
2017-10-15T09:03:37.992Z,696
2017-10-15T09:04:46.661Z,696
2017-10-15T09:05:55.978Z,696
2017-10-15T09:07:04.636Z,700
2017-10-15T09:08:13.813Z,696
2017-10-15T09:09:22.715Z,696
2017-10-15T09:10:32.452Z,696
2017-10-15T09:11:41.834Z,692
2017-10-15T09:12:51.154Z,696
2017-10-15T09:14:00.175Z,692
2017-10-15T09:15:09.180Z,692
2017-10-15T09:16:18.486Z,696
2017-10-15T09:17:28.142Z,692
2017-10-15T09:18:37.492Z,688
2017-10-15T09:19:46.490Z,688
2017-10-15T09:20:56.177Z,676
2017-10-15T09:22:05.956Z,680
2017-10-15T09:23:15.294Z,680
2017-10-15T09:24:24.306Z,676
2017-10-15T09:25:33.350Z,676
2017-10-15T09:26:42.681Z,676
2017-10-15T09:27:51.368Z,676
2017-10-15T09:29:00.020Z,676
2017-10-15T09:30:08.695Z,672
2017-10-15T09:31:17.776Z,672
2017-10-15T09:32:26.768Z,672
2017-10-15T09:33:35.864Z,668
2017-10-15T09:34:44.580Z,668
2017-10-15T09:35:53.291Z,668
2017-10-15T09:37:01.921Z,668
2017-10-15T09:38:11.229Z,668
2017-10-15T09:39:19.886Z,668
2017-10-15T09:40:29.236Z,668
2017-10-15T09:41:37.912Z,672
2017-10-15T09:42:46.908Z,672
2017-10-15T09:43:55.609Z,668
2017-10-15T09:45:04.933Z,672
2017-10-15T09:46:14.250Z,672
2017-10-15T09:47:23.572Z,668
2017-10-15T09:48:32.675Z,668
2017-10-15T09:49:42.009Z,668
2017-10-15T09:50:50.986Z,664
2017-10-15T09:51:59.994Z,664
2017-10-15T09:53:09.009Z,664
2017-10-15T09:54:17.673Z,664
2017-10-15T09:55:27.303Z,660
2017-10-15T09:56:36.297Z,660
2017-10-15T09:57:45.313Z,660
2017-10-15T09:58:54.372Z,660
2017-10-15T10:00:03.052Z,660
2017-10-15T10:01:12.037Z,644
2017-10-15T10:02:21.036Z,640
2017-10-15T10:03:29.689Z,640
2017-10-15T10:04:38.670Z,640
2017-10-15T10:05:47.416Z,644
2017-10-15T10:06:56.407Z,640
2017-10-15T10:08:05.435Z,636
2017-10-15T10:09:14.441Z,636
2017-10-15T10:10:23.118Z,636
2017-10-15T10:11:32.789Z,636
2017-10-15T10:12:41.449Z,632
2017-10-15T10:13:50.476Z,632
2017-10-15T10:14:59.793Z,632
2017-10-15T10:16:08.823Z,636
2017-10-15T10:17:17.891Z,632
2017-10-15T10:18:26.884Z,632
2017-10-15T10:19:35.541Z,632
2017-10-15T10:20:44.542Z,628
2017-10-15T10:21:53.900Z,632
2017-10-15T10:23:03.989Z,628
2017-10-15T10:24:13.004Z,632
2017-10-15T10:25:21.971Z,632
2017-10-15T10:26:31.286Z,632
2017-10-15T10:27:39.970Z,628
2017-10-15T10:28:49.998Z,632
2017-10-15T10:29:59.335Z,632
2017-10-15T10:31:08.668Z,632
2017-10-15T10:32:18.038Z,632
2017-10-15T10:33:27.032Z,632
2017-10-15T10:34:36.146Z,632
2017-10-15T10:35:45.360Z,632
2017-10-15T10:36:54.370Z,636
2017-10-15T10:38:03.363Z,632
2017-10-15T10:39:12.020Z,636
2017-10-15T10:40:21.020Z,640
2017-10-15T10:41:29.689Z,640
2017-10-15T10:42:38.338Z,644
2017-10-15T10:43:47.030Z,648
2017-10-15T10:44:55.694Z,648
2017-10-15T10:46:04.373Z,652
2017-10-15T10:47:13.365Z,652
2017-10-15T10:48:22.362Z,652
2017-10-15T10:49:32.086Z,656
2017-10-15T10:50:41.085Z,656
2017-10-15T10:51:50.422Z,652
2017-10-15T10:52:59.134Z,652
2017-10-15T10:54:07.827Z,652
2017-10-15T10:55:17.123Z,656
2017-10-15T10:56:25.783Z,652
2017-10-15T10:57:34.796Z,656
2017-10-15T10:58:44.101Z,652
2017-10-15T10:59:53.421Z,652
2017-10-15T11:01:03.102Z,648
2017-10-15T11:02:12.423Z,648
2017-10-15T11:03:21.775Z,652
2017-10-15T11:04:30.749Z,648
2017-10-15T11:05:40.383Z,644
2017-10-15T11:06:49.705Z,648
2017-10-15T11:07:58.699Z,648
2017-10-15T11:09:08.018Z,648
2017-10-15T11:10:17.005Z,648
2017-10-15T11:11:25.991Z,648
2017-10-15T11:12:34.997Z,648
2017-10-15T11:13:44.312Z,648
2017-10-15T11:14:53.366Z,652
2017-10-15T11:16:02.034Z,648
2017-10-15T11:17:10.699Z,648
2017-10-15T11:18:19.348Z,648
2017-10-15T11:19:28.655Z,648
2017-10-15T11:20:37.775Z,648
2017-10-15T11:21:46.764Z,648
2017-10-15T11:22:55.753Z,644
2017-10-15T11:24:04.407Z,648
2017-10-15T11:25:14.368Z,644
2017-10-15T11:26:23.036Z,644
2017-10-15T11:27:32.015Z,640
2017-10-15T11:28:41.002Z,640
2017-10-15T11:29:49.999Z,636
2017-10-15T11:30:58.671Z,636
2017-10-15T11:32:07.667Z,636
2017-10-15T11:33:16.321Z,632
2017-10-15T11:34:24.981Z,632
2017-10-15T11:35:33.949Z,632
2017-10-15T11:36:42.941Z,632
2017-10-15T11:37:51.599Z,628
2017-10-15T11:39:00.570Z,624
2017-10-15T11:40:09.985Z,620
2017-10-15T11:41:18.994Z,620
2017-10-15T11:42:28.005Z,620
2017-10-15T11:43:36.763Z,616
2017-10-15T11:44:45.428Z,612
2017-10-15T11:45:54.409Z,612
2017-10-15T11:47:04.044Z,612
2017-10-15T11:48:12.681Z,612
2017-10-15T11:49:21.343Z,608
2017-10-15T11:50:30.348Z,608
2017-10-15T11:51:40.023Z,604
2017-10-15T11:52:48.693Z,608
2017-10-15T11:53:57.689Z,604
2017-10-15T11:55:07.057Z,604
2017-10-15T11:56:16.044Z,604
2017-10-15T11:57:25.027Z,604
2017-10-15T11:58:34.338Z,600
2017-10-15T11:59:43.662Z,600
2017-10-15T12:00:53.076Z,596
2017-10-15T12:02:01.730Z,600
2017-10-15T12:03:10.379Z,596
2017-10-15T12:04:19.709Z,600
2017-10-15T12:05:28.374Z,596
2017-10-15T12:06:37.727Z,596
2017-10-15T12:07:47.045Z,596
2017-10-15T12:08:55.713Z,596
2017-10-15T12:10:04.822Z,596
2017-10-15T12:11:13.874Z,596
2017-10-15T12:12:22.871Z,592
2017-10-15T12:13:31.853Z,592
2017-10-15T12:14:41.837Z,592
2017-10-15T12:15:50.496Z,600
2017-10-15T12:16:59.154Z,596
2017-10-15T12:18:07.832Z,592
2017-10-15T12:19:16.484Z,592
2017-10-15T12:20:25.806Z,592
2017-10-15T12:21:34.467Z,588
2017-10-15T12:22:43.826Z,588
2017-10-15T12:23:52.836Z,588
2017-10-15T12:25:02.147Z,584
2017-10-15T12:26:11.485Z,584
2017-10-15T12:27:21.140Z,580
2017-10-15T12:28:30.464Z,584
2017-10-15T12:29:39.134Z,580
2017-10-15T12:30:48.779Z,576
2017-10-15T12:31:57.798Z,580
2017-10-15T12:33:06.795Z,576
2017-10-15T12:34:16.803Z,576
2017-10-15T12:35:25.482Z,576
2017-10-15T12:36:34.139Z,576
2017-10-15T12:37:43.182Z,576
2017-10-15T12:38:51.877Z,576
2017-10-15T12:40:01.238Z,576
2017-10-15T12:41:10.575Z,576
2017-10-15T12:42:19.591Z,576
2017-10-15T12:43:28.632Z,572
2017-10-15T12:44:37.650Z,572
2017-10-15T12:45:46.635Z,572
2017-10-15T12:46:55.688Z,572
2017-10-15T12:48:04.670Z,568
2017-10-15T12:49:13.675Z,568
2017-10-15T12:50:22.335Z,572
2017-10-15T12:51:31.658Z,568
2017-10-15T12:52:40.699Z,568
2017-10-15T12:53:49.394Z,568
2017-10-15T12:54:58.047Z,564
2017-10-15T12:56:06.726Z,564
2017-10-15T12:57:16.058Z,564
2017-10-15T12:58:25.050Z,564
2017-10-15T12:59:34.073Z,564
2017-10-15T13:00:43.078Z,560
2017-10-15T13:01:52.072Z,560
2017-10-15T13:03:01.067Z,564
2017-10-15T13:04:10.056Z,560
2017-10-15T13:05:18.739Z,560
2017-10-15T13:06:27.480Z,556
2017-10-15T13:07:36.135Z,556
2017-10-15T13:08:45.454Z,552
2017-10-15T13:09:54.810Z,552
2017-10-15T13:11:03.796Z,552
2017-10-15T13:12:13.453Z,548
2017-10-15T13:13:22.461Z,548
2017-10-15T13:14:31.467Z,548
2017-10-15T13:15:40.470Z,544
2017-10-15T13:16:49.785Z,544
2017-10-15T13:17:58.458Z,544
2017-10-15T13:19:07.108Z,544
2017-10-15T13:20:16.432Z,544
2017-10-15T13:21:25.432Z,540
2017-10-15T13:22:34.429Z,540
2017-10-15T13:23:43.439Z,544
2017-10-15T13:24:52.459Z,540
2017-10-15T13:26:01.492Z,536
2017-10-15T13:27:10.320Z,540
2017-10-15T13:28:19.337Z,540
2017-10-15T13:29:28.720Z,532
2017-10-15T13:30:37.731Z,532
2017-10-15T13:31:46.720Z,532
2017-10-15T13:32:55.811Z,532
2017-10-15T13:34:04.836Z,532
2017-10-15T13:35:14.233Z,528
2017-10-15T13:36:23.620Z,528
2017-10-15T13:37:32.714Z,528
2017-10-15T13:38:42.855Z,528
2017-10-15T13:39:51.578Z,524
2017-10-15T13:41:00.961Z,528
2017-10-15T13:42:09.650Z,524
2017-10-15T13:43:18.971Z,524
2017-10-15T13:44:28.984Z,520
2017-10-15T13:45:38.045Z,524
2017-10-15T13:46:47.114Z,520
2017-10-15T13:47:55.791Z,516
2017-10-15T13:49:04.498Z,520
2017-10-15T13:50:13.833Z,520
2017-10-15T13:51:22.523Z,516
2017-10-15T13:52:31.571Z,516
2017-10-15T13:53:40.906Z,516
2017-10-15T13:54:50.290Z,512
2017-10-15T13:55:59.633Z,516
2017-10-15T13:57:08.633Z,512
2017-10-15T13:58:17.638Z,508
2017-10-15T13:59:26.976Z,508
2017-10-15T14:00:36.317Z,508
2017-10-15T14:01:45.678Z,508
2017-10-15T14:02:54.700Z,508
2017-10-15T14:04:03.687Z,504
2017-10-15T14:05:12.701Z,504
2017-10-15T14:06:21.697Z,500
2017-10-15T14:07:30.709Z,504
2017-10-15T14:08:39.693Z,500
2017-10-15T14:09:48.774Z,500
2017-10-15T14:10:57.465Z,500
2017-10-15T14:12:06.530Z,496
2017-10-15T14:13:15.886Z,496
2017-10-15T14:14:25.566Z,496
2017-10-15T14:15:34.563Z,496
2017-10-15T14:16:43.541Z,492
2017-10-15T14:17:52.207Z,492
2017-10-15T14:19:01.533Z,492
2017-10-15T14:20:10.221Z,488
2017-10-15T14:21:19.239Z,496
2017-10-15T14:22:28.311Z,496
2017-10-15T14:23:37.971Z,496
2017-10-15T14:24:47.009Z,496
2017-10-15T14:25:56.051Z,492
2017-10-15T14:27:05.072Z,492
2017-10-15T14:28:14.062Z,488
2017-10-15T14:29:23.066Z,488
2017-10-15T14:30:31.829Z,484
2017-10-15T14:31:40.835Z,484
2017-10-15T14:32:50.173Z,480
2017-10-15T14:33:59.164Z,484
2017-10-15T14:35:08.516Z,480
2017-10-15T14:36:17.294Z,480
2017-10-15T14:37:26.635Z,480
2017-10-15T14:38:35.621Z,472
2017-10-15T14:39:44.646Z,472
2017-10-15T14:40:53.362Z,472
2017-10-15T14:42:02.361Z,468
2017-10-15T14:43:11.387Z,464
2017-10-15T14:44:20.448Z,464
2017-10-15T14:45:29.143Z,464
2017-10-15T14:46:38.176Z,460
2017-10-15T14:47:47.230Z,456
2017-10-15T14:48:56.244Z,456
2017-10-15T14:50:05.244Z,452
2017-10-15T14:51:14.240Z,448
2017-10-15T14:52:23.250Z,448
2017-10-15T14:53:32.588Z,444
2017-10-15T14:54:41.261Z,444
2017-10-15T14:55:50.636Z,440
2017-10-15T14:56:59.297Z,436
2017-10-15T14:58:08.007Z,432
2017-10-15T14:59:17.021Z,432
2017-10-15T15:00:26.012Z,428
2017-10-15T15:01:35.339Z,424
2017-10-15T15:02:44.030Z,424
2017-10-15T15:03:52.755Z,420
2017-10-15T15:05:01.755Z,420
2017-10-15T15:06:10.808Z,416
2017-10-15T15:07:19.816Z,416
2017-10-15T15:08:28.879Z,412
2017-10-15T15:09:37.556Z,408
2017-10-15T15:10:46.694Z,404
2017-10-15T15:11:55.713Z,400
2017-10-15T15:13:04.429Z,400
2017-10-15T15:14:13.473Z,396
2017-10-15T15:15:22.541Z,392
2017-10-15T15:16:31.591Z,388
2017-10-15T15:17:41.260Z,388
2017-10-15T15:18:50.917Z,384
2017-10-15T15:19:59.915Z,380
2017-10-15T15:21:08.963Z,380
2017-10-15T15:22:17.983Z,376
2017-10-15T15:23:27.361Z,372
2017-10-15T15:24:36.043Z,368
2017-10-15T15:25:45.403Z,368
2017-10-15T15:26:54.432Z,360
2017-10-15T15:28:03.801Z,360
2017-10-15T15:29:12.519Z,352
2017-10-15T15:30:21.525Z,352
2017-10-15T15:31:30.225Z,344
2017-10-15T15:32:39.236Z,340
2017-10-15T15:33:48.022Z,340
2017-10-15T15:34:57.038Z,336
2017-10-15T15:36:06.060Z,332
2017-10-15T15:37:15.390Z,324
2017-10-15T15:38:24.397Z,324
2017-10-15T15:39:33.802Z,320
2017-10-15T15:40:42.487Z,316
2017-10-15T15:41:51.503Z,312
2017-10-15T15:43:00.198Z,308
2017-10-15T15:44:09.536Z,300
2017-10-15T15:45:18.547Z,296
2017-10-15T15:46:28.048Z,296
2017-10-15T15:47:37.919Z,292
2017-10-15T15:48:48.434Z,284
2017-10-15T15:49:57.862Z,284
2017-10-15T15:51:08.195Z,276
2017-10-15T15:52:17.944Z,272
2017-10-15T15:53:27.290Z,268
2017-10-15T15:54:36.310Z,260
2017-10-15T15:55:44.974Z,260
2017-10-15T15:56:53.985Z,252
2017-10-15T15:58:03.017Z,248
2017-10-15T15:59:12.352Z,240
2017-10-15T16:00:21.399Z,240
2017-10-15T16:01:30.418Z,232
2017-10-15T16:02:39.121Z,228
2017-10-15T16:03:48.135Z,220
2017-10-15T16:04:57.451Z,216
2017-10-15T16:06:06.521Z,212
2017-10-15T16:07:15.521Z,204
2017-10-15T16:08:24.178Z,200
2017-10-15T16:09:33.843Z,192
2017-10-15T16:10:42.867Z,188
2017-10-15T16:11:52.217Z,180
2017-10-15T16:13:01.230Z,176
2017-10-15T16:14:10.544Z,172
2017-10-15T16:15:20.212Z,164
2017-10-15T16:16:29.213Z,160